Terminal Aerodrome Forecast
Issued by NWS

Home | Current Version | Previous Version | Text Only | Print | Product List | Glossary On
Versions: 1 2 3 4 5 6 7 8 9 10 11 12 13 14 15 16 17 18 19 20 21
000
FTUS43 KAPX 182322
TAFAPN
TAF
KAPN 182322Z 1900/1924 19009KT P6SM SKC
     FM190300 25005KT P6SM BKN008
     FM190600 24004KT 5SM BR BKN008
     FM190800 VRB03KT 2SM BR BKN003
     FM191300 VRB03KT 1/2SM FG BKN003
     FM191500 VRB03KT 3/4SM BR SCT003=

USA.gov is the U.S. government's official web portal to all federal, state and local government web resources and services.